createdAt,value
2018-11-29T00:01:38.456Z,79.77
2018-11-29T00:04:06.215Z,76.63
2018-11-29T00:06:33.621Z,75.17
2018-11-29T00:09:01.013Z,77.10
2018-11-29T00:11:28.470Z,78.40
2018-11-29T00:13:55.904Z,79.90
2018-11-29T00:16:23.303Z,77.57
2018-11-29T00:18:50.759Z,78.27
2018-11-29T00:21:18.286Z,78.13
2018-11-29T00:23:45.651Z,80.20
2018-11-29T00:26:13.087Z,84.77
2018-11-29T00:28:40.544Z,75.00
2018-11-29T00:31:07.907Z,81.17
2018-11-29T00:33:35.268Z,80.17
2018-11-29T00:36:02.718Z,77.90
2018-11-29T00:38:30.096Z,78.83
2018-11-29T00:40:57.550Z,75.57
2018-11-29T00:43:24.983Z,82.33
2018-11-29T00:45:52.346Z,76.33
2018-11-29T00:48:19.803Z,80.20
2018-11-29T00:50:47.255Z,76.40
2018-11-29T00:53:14.963Z,77.50
2018-11-29T00:55:42.355Z,78.60
2018-11-29T00:58:09.706Z,77.20
2018-11-29T01:00:37.082Z,75.57
2018-11-29T01:03:04.520Z,75.53
2018-11-29T01:05:31.895Z,78.00
2018-11-29T01:07:59.234Z,82.63
2018-11-29T01:10:26.603Z,78.87
2018-11-29T01:12:53.987Z,80.53
2018-11-29T01:15:21.562Z,83.77
2018-11-29T01:17:49.384Z,80.37
2018-11-29T01:20:18.086Z,80.77
2018-11-29T01:22:45.542Z,78.07
2018-11-29T01:25:13.427Z,82.97
2018-11-29T01:27:41.074Z,82.80
2018-11-29T01:30:10.182Z,84.60
2018-11-29T01:32:37.662Z,82.50
2018-11-29T01:35:05.650Z,87.00
2018-11-29T01:37:33.033Z,83.77
2018-11-29T01:40:00.391Z,84.43
2018-11-29T01:42:27.854Z,84.17
2018-11-29T01:44:55.408Z,87.20
2018-11-29T01:47:22.783Z,85.40
2018-11-29T01:49:50.214Z,81.77
2018-11-29T01:52:17.595Z,82.37
2018-11-29T01:54:45.037Z,80.67
2018-11-29T01:57:12.492Z,89.07
2018-11-29T01:59:39.956Z,83.60
2018-11-29T02:02:07.393Z,83.33
2018-11-29T02:04:34.776Z,80.73
2018-11-29T02:07:02.220Z,81.27
2018-11-29T02:09:29.662Z,85.23
2018-11-29T02:11:57.029Z,86.57
2018-11-29T02:14:24.495Z,77.87
2018-11-29T02:16:51.939Z,83.43
2018-11-29T02:19:19.311Z,85.37
2018-11-29T02:21:46.747Z,79.40
2018-11-29T02:24:14.379Z,82.60
2018-11-29T02:26:41.762Z,83.37
2018-11-29T02:29:09.103Z,81.73
2018-11-29T02:31:36.487Z,81.60
2018-11-29T02:34:04.423Z,81.30
2018-11-29T02:36:31.947Z,81.03
2018-11-29T02:38:59.363Z,78.10
2018-11-29T02:41:26.739Z,79.30
2018-11-29T02:43:54.154Z,77.40
2018-11-29T02:46:21.552Z,76.97
2018-11-29T02:48:49.063Z,78.20
2018-11-29T02:51:16.459Z,77.97
2018-11-29T02:53:43.896Z,80.63
2018-11-29T02:56:11.346Z,76.67
2018-11-29T02:58:38.712Z,79.73
2018-11-29T03:01:06.189Z,77.03
2018-11-29T03:03:33.647Z,76.40
2018-11-29T03:06:01.070Z,75.50
2018-11-29T03:08:28.459Z,77.77
2018-11-29T03:10:55.870Z,82.47
2018-11-29T03:13:23.248Z,76.80
2018-11-29T03:15:50.597Z,76.67
2018-11-29T03:18:17.974Z,74.37
2018-11-29T03:20:45.415Z,83.67
2018-11-29T03:23:12.766Z,75.57
2018-11-29T03:25:40.137Z,77.97
2018-11-29T03:28:07.630Z,78.90
2018-11-29T03:30:35.036Z,79.57
2018-11-29T03:33:02.405Z,81.83
2018-11-29T03:35:29.862Z,80.83
2018-11-29T03:37:57.288Z,79.77
2018-11-29T03:40:24.706Z,78.67
2018-11-29T03:42:52.116Z,78.37
2018-11-29T03:45:19.482Z,83.83
2018-11-29T03:47:46.911Z,76.73
2018-11-29T03:50:14.855Z,81.90
2018-11-29T03:52:42.275Z,79.50
2018-11-29T03:55:10.034Z,82.90
2018-11-29T03:57:37.795Z,82.00
2018-11-29T04:00:06.994Z,81.00
2018-11-29T04:02:34.444Z,78.27
2018-11-29T04:05:01.898Z,84.00
2018-11-29T04:07:29.360Z,82.17
2018-11-29T04:09:56.792Z,80.30
2018-11-29T04:12:24.160Z,80.93
2018-11-29T04:14:51.495Z,76.47
2018-11-29T04:17:18.866Z,76.87
2018-11-29T04:19:46.242Z,77.10
2018-11-29T04:22:13.658Z,78.10
2018-11-29T04:24:41.108Z,80.13
2018-11-29T04:27:08.498Z,78.00
2018-11-29T04:29:35.948Z,78.47
2018-11-29T04:32:03.311Z,81.43
2018-11-29T04:34:30.744Z,81.60
2018-11-29T04:36:58.143Z,79.50
2018-11-29T04:39:25.561Z,80.17
2018-11-29T04:41:53.267Z,79.57
2018-11-29T04:44:20.679Z,79.10
2018-11-29T04:46:49.005Z,84.30
2018-11-29T04:49:16.443Z,76.80
2018-11-29T04:51:43.887Z,77.10
2018-11-29T04:54:11.263Z,76.60
2018-11-29T04:56:38.883Z,80.90
2018-11-29T04:59:06.403Z,80.00
2018-11-29T05:01:33.914Z,79.93
2018-11-29T05:04:01.284Z,77.27
2018-11-29T05:06:28.749Z,79.57
2018-11-29T05:08:56.227Z,74.27
2018-11-29T05:11:23.630Z,76.67
2018-11-29T05:13:50.992Z,75.67
2018-11-29T05:16:18.648Z,74.83
2018-11-29T05:18:46.011Z,74.90
2018-11-29T05:21:13.376Z,75.27
2018-11-29T05:23:40.856Z,75.47
2018-11-29T05:26:08.267Z,76.90
2018-11-29T05:28:35.631Z,74.10
2018-11-29T05:31:03.099Z,74.50
2018-11-29T05:33:30.558Z,75.17
2018-11-29T05:35:57.995Z,80.47
2018-11-29T05:38:25.450Z,76.23
2018-11-29T05:40:52.955Z,74.93
2018-11-29T05:43:20.375Z,74.53
2018-11-29T05:45:47.747Z,74.27
2018-11-29T05:48:15.208Z,78.90
2018-11-29T05:50:42.772Z,78.23
2018-11-29T05:53:10.284Z,75.17
2018-11-29T05:55:37.940Z,75.97
2018-11-29T05:58:05.780Z,77.27
2018-11-29T06:00:33.231Z,76.63
2018-11-29T06:03:00.647Z,77.00
2018-11-29T06:05:28.101Z,76.73
2018-11-29T06:07:55.559Z,79.17
2018-11-29T06:10:22.926Z,78.37
2018-11-29T06:12:51.223Z,77.10
2018-11-29T06:15:18.633Z,75.60
2018-11-29T06:17:46.778Z,78.37
2018-11-29T06:20:14.187Z,75.47
2018-11-29T06:22:41.649Z,75.87
2018-11-29T06:25:09.210Z,85.47
2018-11-29T06:27:36.654Z,87.07
2018-11-29T06:30:05.094Z,86.07
2018-11-29T06:32:32.466Z,81.60
2018-11-29T06:35:00.175Z,86.15
2018-11-29T06:37:27.606Z,89.50
2018-11-29T06:39:54.966Z,90.77
2018-11-29T06:42:22.432Z,90.32
2018-11-29T06:44:49.878Z,93.03
2018-11-29T06:47:17.311Z,83.43
2018-11-29T06:49:44.713Z,88.67
2018-11-29T06:52:12.140Z,90.50
2018-11-29T06:54:39.502Z,83.27
2018-11-29T06:57:06.973Z,88.17
2018-11-29T06:59:34.435Z,88.90
2018-11-29T07:02:01.870Z,83.33
2018-11-29T07:04:29.237Z,85.17
2018-11-29T07:06:57.025Z,82.30
2018-11-29T07:09:24.437Z,89.80
2018-11-29T07:11:51.799Z,84.93
2018-11-29T07:14:19.184Z,83.10
2018-11-29T07:16:46.610Z,80.70
2018-11-29T07:19:15.135Z,85.03
2018-11-29T07:21:48.972Z,98.63
2018-11-29T07:24:16.396Z,88.17
2018-11-29T07:26:43.811Z,84.20
2018-11-29T07:29:11.152Z,93.73
2018-11-29T07:31:38.858Z,85.47
2018-11-29T07:34:06.283Z,85.90
2018-11-29T07:36:33.726Z,86.77
2018-11-29T07:39:01.107Z,86.30
2018-11-29T07:41:28.546Z,85.70
2018-11-29T07:43:55.929Z,89.80
2018-11-29T07:46:23.381Z,90.73
2018-11-29T07:48:50.884Z,89.87
2018-11-29T07:51:18.278Z,83.03
2018-11-29T07:53:45.633Z,89.87
2018-11-29T07:56:13.016Z,93.00
2018-11-29T07:58:40.436Z,87.33
2018-11-29T08:01:07.802Z,87.10
2018-11-29T08:03:35.259Z,92.73
2018-11-29T08:06:03.070Z,88.83
2018-11-29T08:08:30.461Z,83.87
2018-11-29T08:10:57.828Z,86.80
2018-11-29T08:13:25.223Z,89.57
2018-11-29T08:15:52.648Z,90.80
2018-11-29T08:18:20.081Z,87.00
2018-11-29T08:20:47.470Z,88.00
2018-11-29T08:23:14.914Z,94.33
2018-11-29T08:25:42.288Z,88.73
2018-11-29T08:28:09.722Z,88.07
2018-11-29T08:30:37.199Z,93.27
2018-11-29T08:33:04.658Z,92.53
2018-11-29T08:35:32.096Z,91.13
2018-11-29T08:37:59.568Z,93.70
2018-11-29T08:40:26.995Z,93.03
2018-11-29T08:42:54.369Z,96.87
2018-11-29T08:45:21.820Z,100.80
2018-11-29T08:47:49.177Z,88.33
2018-11-29T08:50:16.548Z,90.80
2018-11-29T08:52:44.516Z,94.80
2018-11-29T08:55:12.611Z,89.47
2018-11-29T08:57:40.018Z,92.87
2018-11-29T09:00:09.591Z,96.57
2018-11-29T09:02:36.995Z,96.20
2018-11-29T09:05:04.715Z,92.60
2018-11-29T09:07:32.108Z,99.43
2018-11-29T09:09:59.479Z,92.17
2018-11-29T09:12:26.915Z,90.57
2018-11-29T09:14:54.303Z,92.67
2018-11-29T09:17:21.721Z,97.27
2018-11-29T09:19:49.089Z,115.07
2018-11-29T09:22:17.901Z,121.10
2018-11-29T09:24:43.893Z,102.23
2018-11-29T09:27:11.251Z,101.27
2018-11-29T09:29:38.606Z,90.10
2018-11-29T09:32:05.979Z,92.10
2018-11-29T09:34:33.395Z,89.50
2018-11-29T09:37:00.796Z,89.07
2018-11-29T09:39:28.233Z,90.67
2018-11-29T09:41:55.703Z,97.17
2018-11-29T09:44:23.152Z,93.83
2018-11-29T09:46:50.572Z,97.40
2018-11-29T09:49:17.954Z,88.60
2018-11-29T09:51:45.428Z,87.97
2018-11-29T09:54:12.875Z,84.73
2018-11-29T09:56:40.318Z,88.93
2018-11-29T09:59:07.663Z,79.10
2018-11-29T10:01:35.139Z,79.57
2018-11-29T10:04:02.476Z,80.53
2018-11-29T10:06:29.848Z,83.93
2018-11-29T10:08:57.191Z,87.43
2018-11-29T10:11:24.568Z,79.07
2018-11-29T10:13:52.003Z,85.53
2018-11-29T10:16:19.376Z,80.97
2018-11-29T10:18:46.798Z,83.53
2018-11-29T10:21:14.169Z,82.67
2018-11-29T10:23:41.553Z,83.70
2018-11-29T10:26:08.975Z,84.23
2018-11-29T10:28:36.375Z,85.37
2018-11-29T10:31:04.019Z,84.17
2018-11-29T10:33:31.500Z,80.47
2018-11-29T10:35:59.545Z,83.90
2018-11-29T10:38:26.376Z,82.13
2018-11-29T10:40:53.741Z,78.10
2018-11-29T10:43:21.194Z,82.07
2018-11-29T10:45:48.561Z,80.87
2018-11-29T10:48:16.818Z,78.07
2018-11-29T10:50:44.188Z,75.97
2018-11-29T10:53:11.634Z,79.17
2018-11-29T10:55:38.964Z,82.70
2018-11-29T10:58:06.350Z,80.50
2018-11-29T11:00:34.829Z,81.43
2018-11-29T11:03:08.459Z,80.40
2018-11-29T11:05:36.162Z,86.67
2018-11-29T11:08:08.259Z,87.27
2018-11-29T11:10:31.020Z,87.00
2018-11-29T11:12:58.495Z,82.83
2018-11-29T11:15:26.083Z,87.97
2018-11-29T11:17:53.451Z,88.03
2018-11-29T11:20:20.831Z,95.13
2018-11-29T11:22:48.324Z,88.60
2018-11-29T11:25:15.794Z,89.93
2018-11-29T11:27:43.202Z,88.10
2018-11-29T11:30:11.412Z,89.00
2018-11-29T11:32:38.847Z,88.97
2018-11-29T11:35:06.606Z,158.73
2018-11-29T11:37:34.073Z,90.70
2018-11-29T11:40:01.517Z,91.87
2018-11-29T11:42:28.971Z,83.07
2018-11-29T11:44:56.423Z,84.10
2018-11-29T11:47:23.776Z,84.20
2018-11-29T11:49:51.111Z,86.43
2018-11-29T11:52:18.500Z,89.47
2018-11-29T11:54:46.707Z,84.03
2018-11-29T11:57:14.137Z,86.33
2018-11-29T11:59:41.700Z,82.17
2018-11-29T12:02:09.414Z,87.73
2018-11-29T12:04:36.774Z,85.97
2018-11-29T12:07:04.162Z,88.90
2018-11-29T12:09:31.618Z,88.10
2018-11-29T12:11:59.048Z,87.43
2018-11-29T12:14:26.410Z,84.67
2018-11-29T12:16:53.758Z,95.83
2018-11-29T12:19:21.108Z,92.83
2018-11-29T12:21:48.500Z,88.70
2018-11-29T12:24:15.940Z,91.23
2018-11-29T12:26:43.295Z,91.80
2018-11-29T12:29:10.636Z,87.77
2018-11-29T12:31:38.010Z,87.67
2018-11-29T12:34:05.518Z,84.47
2018-11-29T12:36:32.919Z,92.80
2018-11-29T12:39:00.275Z,85.20
2018-11-29T12:41:29.143Z,91.43
2018-11-29T12:43:58.635Z,85.20
2018-11-29T12:46:27.636Z,88.97
2018-11-29T12:48:57.112Z,85.93
2018-11-29T12:51:25.912Z,86.23
2018-11-29T12:53:54.947Z,81.47
2018-11-29T12:56:24.176Z,84.47
2018-11-29T12:58:51.592Z,87.10
2018-11-29T13:01:18.961Z,85.57
2018-11-29T13:03:46.314Z,84.17
2018-11-29T13:06:13.671Z,89.70
2018-11-29T13:08:41.147Z,85.20
2018-11-29T13:11:10.723Z,87.33
2018-11-29T13:13:36.153Z,90.80
2018-11-29T13:16:03.604Z,90.60
2018-11-29T13:18:31.278Z,87.97
2018-11-29T13:21:01.492Z,87.70
2018-11-29T13:23:29.051Z,90.10
2018-11-29T13:25:57.977Z,87.63
2018-11-29T13:28:27.743Z,88.90
2018-11-29T13:30:56.962Z,89.30
2018-11-29T13:33:25.929Z,99.07
2018-11-29T13:35:55.001Z,90.63
2018-11-29T13:38:22.623Z,86.97
2018-11-29T13:40:51.051Z,89.00
2018-11-29T13:43:17.785Z,88.50
2018-11-29T13:45:45.339Z,88.50
2018-11-29T13:48:14.288Z,89.03
2018-11-29T13:50:43.336Z,92.10
2018-11-29T13:53:11.150Z,85.83
2018-11-29T13:55:38.931Z,87.13
2018-11-29T13:58:06.080Z,85.27
2018-11-29T14:00:33.647Z,85.33
2018-11-29T14:03:01.996Z,83.20
2018-11-29T14:05:30.046Z,84.40
2018-11-29T14:07:57.660Z,90.60
2018-11-29T14:10:25.141Z,91.63
2018-11-29T14:12:53.127Z,85.50
2018-11-29T14:15:22.095Z,89.27
2018-11-29T14:17:49.494Z,85.07
2018-11-29T14:20:17.089Z,87.30
2018-11-29T14:22:45.939Z,96.30
2018-11-29T14:25:13.896Z,89.43
2018-11-29T14:27:41.752Z,87.17
2018-11-29T14:30:11.691Z,90.30
2018-11-29T14:32:39.176Z,89.67
2018-11-29T14:35:06.931Z,86.83
2018-11-29T14:37:34.402Z,88.30
2018-11-29T14:40:01.939Z,98.97
2018-11-29T14:42:29.384Z,92.93
2018-11-29T14:44:56.938Z,90.17
2018-11-29T14:47:24.436Z,95.37
2018-11-29T14:49:51.846Z,90.33
2018-11-29T14:52:19.219Z,92.70
2018-11-29T14:54:46.673Z,92.30
2018-11-29T14:57:14.181Z,91.97
2018-11-29T14:59:41.584Z,95.07
2018-11-29T15:02:09.035Z,88.10
2018-11-29T15:04:36.479Z,91.33
2018-11-29T15:07:04.036Z,85.57
2018-11-29T15:09:31.729Z,94.00
2018-11-29T15:11:59.512Z,88.23
2018-11-29T15:14:26.914Z,92.43
2018-11-29T15:16:54.568Z,88.37
2018-11-29T15:19:21.999Z,93.67
2018-11-29T15:21:49.457Z,96.17
2018-11-29T15:24:17.058Z,92.93
2018-11-29T15:26:44.426Z,88.93
2018-11-29T15:29:11.860Z,88.23
2018-11-29T15:31:39.257Z,91.40
2018-11-29T15:34:06.707Z,92.40
2018-11-29T15:36:34.152Z,88.13
2018-11-29T15:39:01.592Z,88.07
2018-11-29T15:41:28.960Z,91.60
2018-11-29T15:43:56.691Z,92.20
2018-11-29T15:46:24.099Z,88.67
2018-11-29T15:48:51.507Z,99.90
2018-11-29T15:51:18.891Z,92.37
2018-11-29T15:53:46.229Z,93.47
2018-11-29T15:56:13.588Z,86.90
2018-11-29T15:58:41.242Z,84.67
2018-11-29T16:01:08.615Z,90.30
2018-11-29T16:03:35.946Z,90.70
2018-11-29T16:06:03.332Z,93.53
2018-11-29T16:08:30.802Z,91.70
2018-11-29T16:10:58.578Z,88.67
2018-11-29T16:13:26.326Z,90.20
2018-11-29T16:15:54.277Z,89.17
2018-11-29T16:18:21.750Z,93.10
2018-11-29T16:20:49.398Z,92.73
2018-11-29T16:23:17.109Z,92.17
2018-11-29T16:25:44.662Z,93.10
2018-11-29T16:28:12.398Z,88.70
2018-11-29T16:30:41.196Z,89.57
2018-11-29T16:33:09.290Z,94.20
2018-11-29T16:35:36.807Z,91.77
2018-11-29T16:38:05.007Z,88.93
2018-11-29T16:40:33.103Z,97.10
2018-11-29T16:43:00.725Z,99.47
2018-11-29T16:45:28.242Z,94.27
2018-11-29T16:47:55.747Z,92.20
2018-11-29T16:50:24.095Z,98.10
2018-11-29T16:52:51.569Z,102.20
2018-11-29T16:55:19.034Z,107.93
2018-11-29T16:57:47.815Z,113.17
2018-11-29T17:00:16.588Z,113.30
2018-11-29T17:02:43.972Z,107.40
2018-11-29T17:05:13.164Z,111.55
2018-11-29T17:07:40.609Z,109.05
2018-11-29T17:10:09.013Z,117.13
2018-11-29T17:12:36.493Z,108.00
2018-11-29T17:15:04.923Z,114.12
2018-11-29T17:17:32.378Z,121.90
2018-11-29T17:20:00.075Z,112.20
2018-11-29T17:23:52.042Z,116.73
2018-11-29T17:26:19.456Z,118.75
2018-11-29T17:28:46.890Z,119.00
2018-11-29T17:31:14.373Z,121.67
2018-11-29T17:33:41.814Z,113.63
2018-11-29T17:36:09.254Z,115.00
2018-11-29T17:38:36.735Z,114.77
2018-11-29T17:41:04.491Z,115.42
2018-11-29T17:43:31.993Z,115.57
2018-11-29T17:45:59.413Z,120.55
2018-11-29T17:48:26.850Z,107.27
2018-11-29T17:50:54.326Z,110.30
2018-11-29T17:53:21.879Z,109.20
2018-11-29T17:55:49.252Z,106.80
2018-11-29T17:58:16.712Z,110.17
2018-11-29T18:00:45.803Z,108.50
2018-11-29T18:03:14.184Z,103.27
2018-11-29T18:05:41.616Z,105.83
2018-11-29T18:08:09.085Z,110.50
2018-11-29T18:10:37.690Z,107.60
2018-11-29T18:13:12.500Z,111.70
2018-11-29T18:15:40.276Z,105.37
2018-11-29T18:18:07.719Z,105.40
2018-11-29T18:20:35.483Z,106.78
2018-11-29T18:23:03.031Z,116.60
2018-11-29T18:25:30.487Z,106.58
2018-11-29T18:27:57.968Z,108.40
2018-11-29T18:30:25.428Z,107.80
2018-11-29T18:32:53.251Z,107.27
2018-11-29T18:35:20.801Z,103.02
2018-11-29T18:37:48.190Z,114.80
2018-11-29T18:40:19.238Z,113.15
2018-11-29T18:42:47.292Z,109.57
2018-11-29T18:45:15.482Z,101.90
2018-11-29T18:47:43.346Z,99.95
2018-11-29T18:50:12.383Z,104.55
2018-11-29T18:52:39.846Z,96.97
2018-11-29T18:55:07.334Z,101.95
2018-11-29T18:57:34.814Z,105.58
2018-11-29T19:00:02.275Z,103.35
2018-11-29T19:02:29.722Z,101.02
2018-11-29T19:04:57.169Z,102.85
2018-11-29T19:07:24.640Z,100.80
2018-11-29T19:09:52.125Z,97.92
2018-11-29T19:12:19.756Z,109.78
2018-11-29T19:14:47.198Z,104.00
2018-11-29T19:17:14.659Z,104.90
2018-11-29T19:19:42.120Z,98.62
2018-11-29T19:22:09.585Z,94.92
2018-11-29T19:24:37.048Z,100.97
2018-11-29T19:27:04.999Z,103.27
2018-11-29T19:29:32.445Z,97.70
2018-11-29T19:31:59.920Z,96.85
2018-11-29T19:34:27.380Z,97.70
2018-11-29T19:36:55.434Z,100.45
2018-11-29T19:39:22.606Z,92.95
2018-11-29T19:41:50.202Z,98.22
2018-11-29T19:44:17.603Z,99.92
2018-11-29T19:46:44.958Z,96.50
2018-11-29T19:49:12.830Z,95.50
2018-11-29T19:51:40.254Z,101.25
2018-11-29T19:54:07.658Z,91.75
2018-11-29T19:56:35.099Z,95.38
2018-11-29T19:59:02.636Z,93.33
2018-11-29T20:01:30.077Z,92.20
2018-11-29T20:03:57.488Z,91.40
2018-11-29T20:06:24.946Z,97.22
2018-11-29T20:08:52.399Z,92.70
2018-11-29T20:11:19.927Z,95.17
2018-11-29T20:13:47.401Z,95.05
2018-11-29T20:16:14.909Z,88.70
2018-11-29T20:18:42.313Z,88.87
2018-11-29T20:21:09.791Z,94.37
2018-11-29T20:23:37.252Z,88.58
2018-11-29T20:26:04.712Z,87.22
2018-11-29T20:28:32.159Z,87.80
2018-11-29T20:30:59.859Z,93.60
2018-11-29T20:33:27.260Z,92.25
2018-11-29T20:35:54.756Z,94.10
2018-11-29T20:38:22.295Z,90.38
2018-11-29T20:40:49.714Z,92.30
2018-11-29T20:43:17.089Z,91.40
2018-11-29T20:46:00.338Z,94.42
2018-11-29T20:48:28.486Z,95.55
2018-11-29T20:50:57.297Z,91.63
2018-11-29T20:53:25.745Z,86.00
2018-11-29T20:55:53.250Z,92.30
2018-11-29T20:58:20.663Z,92.62
2018-11-29T21:00:48.134Z,94.32
2018-11-29T21:03:15.588Z,96.15
2018-11-29T21:05:43.203Z,92.97
2018-11-29T21:08:11.004Z,91.32
2018-11-29T21:10:38.399Z,95.40
2018-11-29T21:13:07.215Z,93.42
2018-11-29T21:15:35.306Z,88.37
2018-11-29T21:18:02.760Z,93.90
2018-11-29T21:20:30.371Z,90.72
2018-11-29T21:22:57.894Z,87.82
2018-11-29T21:25:25.671Z,89.03
2018-11-29T21:27:53.120Z,90.35
2018-11-29T21:30:20.490Z,99.03
2018-11-29T21:32:48.247Z,95.67
2018-11-29T21:35:16.856Z,90.22
2018-11-29T21:37:44.466Z,91.97
2018-11-29T21:40:20.113Z,89.50
2018-11-29T21:42:47.498Z,91.67
2018-11-29T21:45:15.377Z,91.45
2018-11-29T21:47:42.866Z,91.50
2018-11-29T21:50:10.316Z,90.50
2018-11-29T21:52:37.754Z,90.70
2018-11-29T21:55:05.604Z,93.58
2018-11-29T21:57:33.153Z,96.85
2018-11-29T22:00:00.745Z,105.17
2018-11-29T22:02:28.193Z,97.90
2018-11-29T22:04:55.623Z,95.05
2018-11-29T22:07:23.007Z,92.57
2018-11-29T22:09:50.437Z,88.33
2018-11-29T22:12:17.906Z,90.10
2018-11-29T22:14:45.359Z,91.22
2018-11-29T22:17:12.834Z,91.70
2018-11-29T22:19:40.264Z,92.10
2018-11-29T22:22:07.675Z,96.95
2018-11-29T22:24:36.098Z,92.40
2018-11-29T22:27:03.584Z,100.12
2018-11-29T22:29:31.939Z,92.10
2018-11-29T22:31:59.414Z,91.28
2018-11-29T22:34:26.886Z,90.80
2018-11-29T22:36:54.306Z,93.45
2018-11-29T22:39:22.821Z,95.38
2018-11-29T22:41:50.451Z,91.32
2018-11-29T22:44:17.933Z,96.70
2018-11-29T22:46:45.372Z,92.47
2018-11-29T22:49:12.842Z,94.37
2018-11-29T22:51:40.277Z,92.47
2018-11-29T22:54:07.735Z,95.65
2018-11-29T22:56:35.105Z,101.95
2018-11-29T22:59:02.550Z,96.32
2018-11-29T23:01:30.022Z,95.95
2018-11-29T23:03:57.469Z,94.05
2018-11-29T23:06:24.935Z,97.30
2018-11-29T23:08:52.489Z,92.78
2018-11-29T23:11:19.968Z,92.22
2018-11-29T23:13:47.431Z,90.93
2018-11-29T23:16:14.871Z,93.37
2018-11-29T23:18:42.356Z,88.90
2018-11-29T23:21:09.783Z,93.42
2018-11-29T23:23:37.241Z,97.45
2018-11-29T23:26:04.741Z,98.10
2018-11-29T23:28:32.153Z,96.47
2018-11-29T23:30:59.597Z,100.02
2018-11-29T23:33:27.070Z,97.67
2018-11-29T23:35:54.528Z,95.28
2018-11-29T23:38:22.266Z,93.87
2018-11-29T23:40:49.712Z,94.97
2018-11-29T23:43:17.087Z,96.28
2018-11-29T23:45:44.886Z,104.72
2018-11-29T23:48:12.342Z,94.95
2018-11-29T23:50:39.882Z,101.27
2018-11-29T23:53:07.398Z,94.55
2018-11-29T23:55:34.811Z,100.02
2018-11-29T23:58:02.593Z,90.05
